sensor_id;sensor_type;location;lat;lon;timestamp;temperature;humidity
14097;DHT22;7125;48.106;11.544;2022-12-20T00:01:48;0.10;99.90
14097;DHT22;7125;48.106;11.544;2022-12-20T00:04:16;0.10;99.90
14097;DHT22;7125;48.106;11.544;2022-12-20T00:06:43;0.00;99.90
14097;DHT22;7125;48.106;11.544;2022-12-20T00:09:10;0.00;99.90
14097;DHT22;7125;48.106;11.544;2022-12-20T00:11:39;0.00;99.90
14097;DHT22;7125;48.106;11.544;2022-12-20T00:14:06;0.00;99.90
14097;DHT22;7125;48.106;11.544;2022-12-20T00:16:35;0.00;99.90
14097;DHT22;7125;48.106;11.544;2022-12-20T00:19:04;0.00;99.90
14097;DHT22;7125;48.106;11.544;2022-12-20T00:21:34;0.00;99.90
14097;DHT22;7125;48.106;11.544;2022-12-20T00:24:01;0.00;99.90
14097;DHT22;7125;48.106;11.544;2022-12-20T00:26:30;0.00;99.90
14097;DHT22;7125;48.106;11.544;2022-12-20T00:28:58;0.00;99.90
14097;DHT22;7125;48.106;11.544;2022-12-20T00:31:28;0.00;99.90
14097;DHT22;7125;48.106;11.544;2022-12-20T00:33:56;0.00;99.90
14097;DHT22;7125;48.106;11.544;2022-12-20T00:36:25;0.00;99.90
14097;DHT22;7125;48.106;11.544;2022-12-20T00:38:55;0.10;99.90
14097;DHT22;7125;48.106;11.544;2022-12-20T00:41:27;0.10;99.90
14097;DHT22;7125;48.106;11.544;2022-12-20T00:43:54;0.10;99.90
14097;DHT22;7125;48.106;11.544;2022-12-20T00:46:22;0.10;99.90
14097;DHT22;7125;48.106;11.544;2022-12-20T00:48:51;0.10;99.90
14097;DHT22;7125;48.106;11.544;2022-12-20T00:51:20;0.10;99.90
14097;DHT22;7125;48.106;11.544;2022-12-20T00:53:48;0.10;99.90
14097;DHT22;7125;48.106;11.544;2022-12-20T00:56:17;0.10;99.90
14097;DHT22;7125;48.106;11.544;2022-12-20T00:58:45;0.10;99.90
14097;DHT22;7125;48.106;11.544;2022-12-20T01:01:18;0.10;99.90
14097;DHT22;7125;48.106;11.544;2022-12-20T01:03:50;0.10;99.90
14097;DHT22;7125;48.106;11.544;2022-12-20T01:06:18;0.10;99.90
14097;DHT22;7125;48.106;11.544;2022-12-20T01:08:46;0.10;99.90
14097;DHT22;7125;48.106;11.544;2022-12-20T01:11:17;0.10;99.90
14097;DHT22;7125;48.106;11.544;2022-12-20T01:13:46;0.10;99.90
14097;DHT22;7125;48.106;11.544;2022-12-20T01:16:15;0.10;99.90
14097;DHT22;7125;48.106;11.544;2022-12-20T01:18:44;0.10;99.90
14097;DHT22;7125;48.106;11.544;2022-12-20T01:21:13;0.10;99.90
14097;DHT22;7125;48.106;11.544;2022-12-20T01:23:41;0.10;99.90
14097;DHT22;7125;48.106;11.544;2022-12-20T01:26:12;0.10;99.90
14097;DHT22;7125;48.106;11.544;2022-12-20T01:28:42;0.10;99.90
14097;DHT22;7125;48.106;11.544;2022-12-20T01:31:12;0.20;99.90
14097;DHT22;7125;48.106;11.544;2022-12-20T01:33:39;0.20;99.90
14097;DHT22;7125;48.106;11.544;2022-12-20T01:36:07;0.10;99.90
14097;DHT22;7125;48.106;11.544;2022-12-20T01:38:36;0.10;99.90
14097;DHT22;7125;48.106;11.544;2022-12-20T01:41:03;0.10;99.90
14097;DHT22;7125;48.106;11.544;2022-12-20T01:43:47;0.10;99.90
14097;DHT22;7125;48.106;11.544;2022-12-20T01:46:15;0.10;99.90
14097;DHT22;7125;48.106;11.544;2022-12-20T01:48:48;0.10;99.90
14097;DHT22;7125;48.106;11.544;2022-12-20T01:51:17;0.10;99.90
14097;DHT22;7125;48.106;11.544;2022-12-20T01:53:45;0.10;99.90
14097;DHT22;7125;48.106;11.544;2022-12-20T01:56:13;0.10;99.90
14097;DHT22;7125;48.106;11.544;2022-12-20T01:58:41;0.10;99.90
14097;DHT22;7125;48.106;11.544;2022-12-20T02:01:10;0.10;99.90
14097;DHT22;7125;48.106;11.544;2022-12-20T02:03:37;0.10;99.90
14097;DHT22;7125;48.106;11.544;2022-12-20T02:06:16;0.10;99.90
14097;DHT22;7125;48.106;11.544;2022-12-20T02:08:44;0.10;99.90
14097;DHT22;7125;48.106;11.544;2022-12-20T02:11:23;0.10;99.90
14097;DHT22;7125;48.106;11.544;2022-12-20T02:13:59;0.10;99.90
14097;DHT22;7125;48.106;11.544;2022-12-20T02:16:44;0.10;99.90
14097;DHT22;7125;48.106;11.544;2022-12-20T02:22:17;0.10;99.90
14097;DHT22;7125;48.106;11.544;2022-12-20T02:25:13;0.20;99.90
14097;DHT22;7125;48.106;11.544;2022-12-20T02:27:55;0.10;99.90
14097;DHT22;7125;48.106;11.544;2022-12-20T02:30:27;0.20;99.90
14097;DHT22;7125;48.106;11.544;2022-12-20T02:32:59;0.10;99.90
14097;DHT22;7125;48.106;11.544;2022-12-20T02:35:32;0.10;99.90
14097;DHT22;7125;48.106;11.544;2022-12-20T02:38:00;0.20;99.90
14097;DHT22;7125;48.106;11.544;2022-12-20T02:40:31;0.20;99.90
14097;DHT22;7125;48.106;11.544;2022-12-20T02:43:02;0.20;99.90
14097;DHT22;7125;48.106;11.544;2022-12-20T02:45:53;0.20;99.90
14097;DHT22;7125;48.106;11.544;2022-12-20T02:48:20;0.20;99.90
14097;DHT22;7125;48.106;11.544;2022-12-20T02:50:49;0.10;99.90
14097;DHT22;7125;48.106;11.544;2022-12-20T02:53:18;0.20;99.90
14097;DHT22;7125;48.106;11.544;2022-12-20T02:55:47;0.20;99.90
14097;DHT22;7125;48.106;11.544;2022-12-20T02:58:22;0.20;99.90
14097;DHT22;7125;48.106;11.544;2022-12-20T03:00:58;0.20;99.90
14097;DHT22;7125;48.106;11.544;2022-12-20T03:03:29;0.20;99.90
14097;DHT22;7125;48.106;11.544;2022-12-20T03:05:57;0.20;99.90
14097;DHT22;7125;48.106;11.544;2022-12-20T03:08:24;0.20;99.90
14097;DHT22;7125;48.106;11.544;2022-12-20T03:10:53;0.20;99.90
14097;DHT22;7125;48.106;11.544;2022-12-20T03:13:21;0.30;99.90
14097;DHT22;7125;48.106;11.544;2022-12-20T03:16:07;0.30;99.90
14097;DHT22;7125;48.106;11.544;2022-12-20T03:18:35;0.30;99.90
14097;DHT22;7125;48.106;11.544;2022-12-20T03:21:03;0.30;99.90
14097;DHT22;7125;48.106;11.544;2022-12-20T03:23:30;0.30;99.90
14097;DHT22;7125;48.106;11.544;2022-12-20T03:25:57;0.30;99.90
14097;DHT22;7125;48.106;11.544;2022-12-20T03:28:31;0.30;99.90
14097;DHT22;7125;48.106;11.544;2022-12-20T03:30:58;0.30;99.90
14097;DHT22;7125;48.106;11.544;2022-12-20T03:33:26;0.30;99.90
14097;DHT22;7125;48.106;11.544;2022-12-20T03:35:57;0.30;99.90
14097;DHT22;7125;48.106;11.544;2022-12-20T03:38:24;0.40;99.90
14097;DHT22;7125;48.106;11.544;2022-12-20T03:40:51;0.40;99.90
14097;DHT22;7125;48.106;11.544;2022-12-20T03:43:20;0.40;99.90
14097;DHT22;7125;48.106;11.544;2022-12-20T03:45:47;0.40;99.90
14097;DHT22;7125;48.106;11.544;2022-12-20T03:48:14;0.40;99.90
14097;DHT22;7125;48.106;11.544;2022-12-20T03:50:42;0.40;99.90
14097;DHT22;7125;48.106;11.544;2022-12-20T03:53:09;0.40;99.90
14097;DHT22;7125;48.106;11.544;2022-12-20T03:55:36;0.40;99.90
14097;DHT22;7125;48.106;11.544;2022-12-20T03:58:03;0.40;99.90
14097;DHT22;7125;48.106;11.544;2022-12-20T04:00:35;0.40;99.90
14097;DHT22;7125;48.106;11.544;2022-12-20T04:03:22;0.40;99.90
14097;DHT22;7125;48.106;11.544;2022-12-20T04:05:50;0.40;99.90
14097;DHT22;7125;48.106;11.544;2022-12-20T04:08:17;0.40;99.90
14097;DHT22;7125;48.106;11.544;2022-12-20T04:10:46;0.40;99.90
14097;DHT22;7125;48.106;11.544;2022-12-20T04:13:34;0.50;99.90
14097;DHT22;7125;48.106;11.544;2022-12-20T04:16:02;0.50;99.90
14097;DHT22;7125;48.106;11.544;2022-12-20T04:18:31;0.40;99.90
14097;DHT22;7125;48.106;11.544;2022-12-20T04:21:01;0.50;99.90
14097;DHT22;7125;48.106;11.544;2022-12-20T04:23:30;0.40;99.90
14097;DHT22;7125;48.106;11.544;2022-12-20T04:25:57;0.40;99.90
14097;DHT22;7125;48.106;11.544;2022-12-20T04:28:24;0.50;99.90
14097;DHT22;7125;48.106;11.544;2022-12-20T04:30:53;0.50;99.90
14097;DHT22;7125;48.106;11.544;2022-12-20T04:33:24;0.50;99.90
14097;DHT22;7125;48.106;11.544;2022-12-20T04:35:52;0.50;99.90
14097;DHT22;7125;48.106;11.544;2022-12-20T04:38:22;0.50;99.90
14097;DHT22;7125;48.106;11.544;2022-12-20T04:40:52;0.50;99.90
14097;DHT22;7125;48.106;11.544;2022-12-20T04:43:22;0.50;99.90
14097;DHT22;7125;48.106;11.544;2022-12-20T04:45:51;0.50;99.90
14097;DHT22;7125;48.106;11.544;2022-12-20T04:48:23;0.50;99.90
14097;DHT22;7125;48.106;11.544;2022-12-20T04:50:52;0.50;99.90
14097;DHT22;7125;48.106;11.544;2022-12-20T04:53:21;0.40;99.90
14097;DHT22;7125;48.106;11.544;2022-12-20T04:56:07;0.40;99.90
14097;DHT22;7125;48.106;11.544;2022-12-20T04:58:34;0.40;99.90
14097;DHT22;7125;48.106;11.544;2022-12-20T05:01:04;0.40;99.90
14097;DHT22;7125;48.106;11.544;2022-12-20T05:03:40;0.40;99.90
14097;DHT22;7125;48.106;11.544;2022-12-20T05:06:07;0.50;99.90
14097;DHT22;7125;48.106;11.544;2022-12-20T05:08:37;0.40;99.90
14097;DHT22;7125;48.106;11.544;2022-12-20T05:11:05;0.50;99.90
14097;DHT22;7125;48.106;11.544;2022-12-20T05:13:33;0.40;99.90
14097;DHT22;7125;48.106;11.544;2022-12-20T05:16:00;0.50;99.90
14097;DHT22;7125;48.106;11.544;2022-12-20T05:18:31;0.50;99.90
14097;DHT22;7125;48.106;11.544;2022-12-20T05:21:05;0.50;99.90
14097;DHT22;7125;48.106;11.544;2022-12-20T05:23:53;0.50;99.90
14097;DHT22;7125;48.106;11.544;2022-12-20T05:26:57;0.50;99.90
14097;DHT22;7125;48.106;11.544;2022-12-20T05:29:24;0.50;99.90
14097;DHT22;7125;48.106;11.544;2022-12-20T05:31:52;0.50;99.90
14097;DHT22;7125;48.106;11.544;2022-12-20T05:34:20;0.50;99.90
14097;DHT22;7125;48.106;11.544;2022-12-20T05:36:51;0.50;99.90
14097;DHT22;7125;48.106;11.544;2022-12-20T05:39:21;0.50;99.90
14097;DHT22;7125;48.106;11.544;2022-12-20T05:41:51;0.50;99.90
14097;DHT22;7125;48.106;11.544;2022-12-20T05:44:21;0.50;99.90
14097;DHT22;7125;48.106;11.544;2022-12-20T05:46:51;0.50;99.90
14097;DHT22;7125;48.106;11.544;2022-12-20T05:49:24;0.50;99.90
14097;DHT22;7125;48.106;11.544;2022-12-20T05:51:51;0.50;99.90
14097;DHT22;7125;48.106;11.544;2022-12-20T05:54:26;0.50;99.90
14097;DHT22;7125;48.106;11.544;2022-12-20T05:56:58;0.50;99.90
14097;DHT22;7125;48.106;11.544;2022-12-20T05:59:33;0.50;99.90
14097;DHT22;7125;48.106;11.544;2022-12-20T06:02:01;0.40;99.90
14097;DHT22;7125;48.106;11.544;2022-12-20T06:04:31;0.40;99.90
14097;DHT22;7125;48.106;11.544;2022-12-20T06:07:02;0.40;99.90
14097;DHT22;7125;48.106;11.544;2022-12-20T06:09:31;0.30;99.90
14097;DHT22;7125;48.106;11.544;2022-12-20T06:12:06;0.40;99.90
14097;DHT22;7125;48.106;11.544;2022-12-20T06:14:33;0.30;99.90
14097;DHT22;7125;48.106;11.544;2022-12-20T06:17:01;0.30;99.90
14097;DHT22;7125;48.106;11.544;2022-12-20T06:19:29;0.30;99.90
14097;DHT22;7125;48.106;11.544;2022-12-20T06:21:57;0.30;99.90
14097;DHT22;7125;48.106;11.544;2022-12-20T06:24:34;0.30;99.90
14097;DHT22;7125;48.106;11.544;2022-12-20T06:27:02;0.30;99.90
14097;DHT22;7125;48.106;11.544;2022-12-20T06:29:29;0.40;99.90
14097;DHT22;7125;48.106;11.544;2022-12-20T06:32:07;0.30;99.90
14097;DHT22;7125;48.106;11.544;2022-12-20T06:34:34;0.40;99.90
14097;DHT22;7125;48.106;11.544;2022-12-20T06:37:01;0.40;99.90
14097;DHT22;7125;48.106;11.544;2022-12-20T06:39:33;0.40;99.90
14097;DHT22;7125;48.106;11.544;2022-12-20T06:42:05;0.40;99.90
14097;DHT22;7125;48.106;11.544;2022-12-20T06:44:34;0.40;99.90
14097;DHT22;7125;48.106;11.544;2022-12-20T06:47:01;0.40;99.90
14097;DHT22;7125;48.106;11.544;2022-12-20T06:49:29;0.50;99.90
14097;DHT22;7125;48.106;11.544;2022-12-20T06:51:56;0.50;99.90
14097;DHT22;7125;48.106;11.544;2022-12-20T06:54:46;0.50;99.90
14097;DHT22;7125;48.106;11.544;2022-12-20T06:57:14;0.50;99.90
14097;DHT22;7125;48.106;11.544;2022-12-20T06:59:43;0.50;99.90
14097;DHT22;7125;48.106;11.544;2022-12-20T07:02:10;0.50;99.90
14097;DHT22;7125;48.106;11.544;2022-12-20T07:04:37;0.50;99.90
14097;DHT22;7125;48.106;11.544;2022-12-20T07:07:05;0.50;99.90
14097;DHT22;7125;48.106;11.544;2022-12-20T07:09:32;0.50;99.90
14097;DHT22;7125;48.106;11.544;2022-12-20T07:12:00;0.50;99.90
14097;DHT22;7125;48.106;11.544;2022-12-20T07:14:27;0.50;99.90
14097;DHT22;7125;48.106;11.544;2022-12-20T07:16:54;0.60;99.90
14097;DHT22;7125;48.106;11.544;2022-12-20T07:19:21;0.50;99.90
14097;DHT22;7125;48.106;11.544;2022-12-20T07:21:48;0.60;99.90
14097;DHT22;7125;48.106;11.544;2022-12-20T07:24:15;0.60;99.90
14097;DHT22;7125;48.106;11.544;2022-12-20T07:26:43;0.60;99.90
14097;DHT22;7125;48.106;11.544;2022-12-20T07:29:11;0.60;99.90
14097;DHT22;7125;48.106;11.544;2022-12-20T07:31:38;0.60;99.90
14097;DHT22;7125;48.106;11.544;2022-12-20T07:34:05;0.60;99.90
14097;DHT22;7125;48.106;11.544;2022-12-20T07:36:32;0.60;99.90
14097;DHT22;7125;48.106;11.544;2022-12-20T07:39:00;0.60;99.90
14097;DHT22;7125;48.106;11.544;2022-12-20T07:41:27;0.70;99.90
14097;DHT22;7125;48.106;11.544;2022-12-20T07:43:54;0.70;99.90
14097;DHT22;7125;48.106;11.544;2022-12-20T07:46:24;0.70;99.90
14097;DHT22;7125;48.106;11.544;2022-12-20T07:48:51;0.70;99.90
14097;DHT22;7125;48.106;11.544;2022-12-20T07:51:22;0.80;99.90
14097;DHT22;7125;48.106;11.544;2022-12-20T07:53:52;0.80;99.90
14097;DHT22;7125;48.106;11.544;2022-12-20T07:56:21;0.80;99.90
14097;DHT22;7125;48.106;11.544;2022-12-20T07:58:49;0.80;99.90
14097;DHT22;7125;48.106;11.544;2022-12-20T08:01:17;0.90;99.90
14097;DHT22;7125;48.106;11.544;2022-12-20T08:03:50;0.90;99.90
14097;DHT22;7125;48.106;11.544;2022-12-20T08:06:19;0.90;99.90
14097;DHT22;7125;48.106;11.544;2022-12-20T08:08:50;1.00;99.90
14097;DHT22;7125;48.106;11.544;2022-12-20T08:11:20;1.00;99.90
14097;DHT22;7125;48.106;11.544;2022-12-20T08:13:48;1.10;99.90
14097;DHT22;7125;48.106;11.544;2022-12-20T08:16:15;1.10;99.90
14097;DHT22;7125;48.106;11.544;2022-12-20T08:18:42;1.10;99.90
14097;DHT22;7125;48.106;11.544;2022-12-20T08:21:10;1.20;99.90
14097;DHT22;7125;48.106;11.544;2022-12-20T08:23:37;1.20;99.90
14097;DHT22;7125;48.106;11.544;2022-12-20T08:26:04;1.20;99.90
14097;DHT22;7125;48.106;11.544;2022-12-20T08:28:31;1.20;99.90
14097;DHT22;7125;48.106;11.544;2022-12-20T08:31:02;1.30;99.90
14097;DHT22;7125;48.106;11.544;2022-12-20T08:33:30;1.30;99.90
14097;DHT22;7125;48.106;11.544;2022-12-20T08:35:58;1.30;99.90
14097;DHT22;7125;48.106;11.544;2022-12-20T08:38:28;1.40;99.90
14097;DHT22;7125;48.106;11.544;2022-12-20T08:40:55;1.40;99.90
14097;DHT22;7125;48.106;11.544;2022-12-20T08:43:27;1.40;99.90
14097;DHT22;7125;48.106;11.544;2022-12-20T08:45:54;1.40;99.90
14097;DHT22;7125;48.106;11.544;2022-12-20T08:48:21;1.50;99.90
14097;DHT22;7125;48.106;11.544;2022-12-20T08:50:53;1.50;99.90
14097;DHT22;7125;48.106;11.544;2022-12-20T08:53:21;1.60;99.90
14097;DHT22;7125;48.106;11.544;2022-12-20T08:55:49;1.60;99.90
14097;DHT22;7125;48.106;11.544;2022-12-20T08:58:16;1.60;99.90
14097;DHT22;7125;48.106;11.544;2022-12-20T09:00:43;1.60;99.90
14097;DHT22;7125;48.106;11.544;2022-12-20T09:03:10;1.70;99.90
14097;DHT22;7125;48.106;11.544;2022-12-20T09:05:43;1.70;99.90
14097;DHT22;7125;48.106;11.544;2022-12-20T09:08:11;1.80;99.90
14097;DHT22;7125;48.106;11.544;2022-12-20T09:10:38;1.80;99.90
14097;DHT22;7125;48.106;11.544;2022-12-20T09:13:06;1.90;99.90
14097;DHT22;7125;48.106;11.544;2022-12-20T09:15:34;2.00;99.90
14097;DHT22;7125;48.106;11.544;2022-12-20T09:18:01;2.10;99.90
14097;DHT22;7125;48.106;11.544;2022-12-20T09:20:28;2.10;99.90
14097;DHT22;7125;48.106;11.544;2022-12-20T09:22:56;2.20;99.90
14097;DHT22;7125;48.106;11.544;2022-12-20T09:25:23;2.30;99.90
14097;DHT22;7125;48.106;11.544;2022-12-20T09:27:50;2.40;99.90
14097;DHT22;7125;48.106;11.544;2022-12-20T09:30:18;2.40;99.90
14097;DHT22;7125;48.106;11.544;2022-12-20T09:32:45;2.50;99.90
14097;DHT22;7125;48.106;11.544;2022-12-20T09:35:12;2.50;99.90
14097;DHT22;7125;48.106;11.544;2022-12-20T09:37:40;2.60;99.90
14097;DHT22;7125;48.106;11.544;2022-12-20T09:40:13;2.60;99.90
14097;DHT22;7125;48.106;11.544;2022-12-20T09:42:42;2.70;99.90
14097;DHT22;7125;48.106;11.544;2022-12-20T09:45:18;2.70;99.90
14097;DHT22;7125;48.106;11.544;2022-12-20T09:47:47;2.80;99.90
14097;DHT22;7125;48.106;11.544;2022-12-20T09:50:15;2.80;99.90
14097;DHT22;7125;48.106;11.544;2022-12-20T09:52:54;2.90;99.90
14097;DHT22;7125;48.106;11.544;2022-12-20T09:55:29;2.90;99.90
14097;DHT22;7125;48.106;11.544;2022-12-20T09:58:17;3.00;99.90
14097;DHT22;7125;48.106;11.544;2022-12-20T10:00:48;3.00;99.90
14097;DHT22;7125;48.106;11.544;2022-12-20T10:03:20;3.10;99.90
14097;DHT22;7125;48.106;11.544;2022-12-20T10:05:51;3.20;99.90
14097;DHT22;7125;48.106;11.544;2022-12-20T10:08:29;3.30;99.90
14097;DHT22;7125;48.106;11.544;2022-12-20T10:11:07;3.40;99.90
14097;DHT22;7125;48.106;11.544;2022-12-20T10:13:46;3.50;99.90
14097;DHT22;7125;48.106;11.544;2022-12-20T10:16:31;3.50;99.90
14097;DHT22;7125;48.106;11.544;2022-12-20T10:19:16;3.60;99.90
14097;DHT22;7125;48.106;11.544;2022-12-20T10:21:52;3.70;99.90
14097;DHT22;7125;48.106;11.544;2022-12-20T10:24:28;3.80;99.90
14097;DHT22;7125;48.106;11.544;2022-12-20T10:26:56;3.80;99.90
14097;DHT22;7125;48.106;11.544;2022-12-20T10:29:24;3.90;99.90
14097;DHT22;7125;48.106;11.544;2022-12-20T10:31:52;3.90;99.90
14097;DHT22;7125;48.106;11.544;2022-12-20T10:34:23;4.00;99.90
14097;DHT22;7125;48.106;11.544;2022-12-20T10:37:10;4.00;99.90
14097;DHT22;7125;48.106;11.544;2022-12-20T10:39:40;4.00;99.90
14097;DHT22;7125;48.106;11.544;2022-12-20T10:42:26;4.10;99.90
14097;DHT22;7125;48.106;11.544;2022-12-20T10:44:55;4.20;99.90
14097;DHT22;7125;48.106;11.544;2022-12-20T10:47:31;4.30;99.90
14097;DHT22;7125;48.106;11.544;2022-12-20T10:50:16;4.30;99.90
14097;DHT22;7125;48.106;11.544;2022-12-20T10:52:43;4.30;99.90
14097;DHT22;7125;48.106;11.544;2022-12-20T10:55:33;4.30;99.90
14097;DHT22;7125;48.106;11.544;2022-12-20T10:58:03;4.40;99.90
14097;DHT22;7125;48.106;11.544;2022-12-20T11:00:31;4.40;99.90
14097;DHT22;7125;48.106;11.544;2022-12-20T11:03:09;4.40;99.90
14097;DHT22;7125;48.106;11.544;2022-12-20T11:05:39;4.40;99.90
14097;DHT22;7125;48.106;11.544;2022-12-20T11:08:12;4.50;99.90
14097;DHT22;7125;48.106;11.544;2022-12-20T11:10:41;4.50;99.90
14097;DHT22;7125;48.106;11.544;2022-12-20T11:13:18;4.50;99.90
14097;DHT22;7125;48.106;11.544;2022-12-20T11:15:48;4.50;99.90
14097;DHT22;7125;48.106;11.544;2022-12-20T11:18:20;4.60;99.90
14097;DHT22;7125;48.106;11.544;2022-12-20T11:20:57;4.60;99.90
14097;DHT22;7125;48.106;11.544;2022-12-20T11:23:33;4.60;99.90
14097;DHT22;7125;48.106;11.544;2022-12-20T11:26:15;4.70;99.90
14097;DHT22;7125;48.106;11.544;2022-12-20T11:29:01;4.80;99.90
14097;DHT22;7125;48.106;11.544;2022-12-20T11:31:42;4.90;99.90
14097;DHT22;7125;48.106;11.544;2022-12-20T11:34:24;4.90;99.90
14097;DHT22;7125;48.106;11.544;2022-12-20T11:37:10;4.90;99.90
14097;DHT22;7125;48.106;11.544;2022-12-20T11:40:02;5.00;99.90
14097;DHT22;7125;48.106;11.544;2022-12-20T11:42:39;5.00;99.90
14097;DHT22;7125;48.106;11.544;2022-12-20T11:45:14;5.00;99.90
14097;DHT22;7125;48.106;11.544;2022-12-20T11:48:08;5.00;99.90
14097;DHT22;7125;48.106;11.544;2022-12-20T11:51:01;5.00;99.90
14097;DHT22;7125;48.106;11.544;2022-12-20T11:53:35;5.10;99.90
14097;DHT22;7125;48.106;11.544;2022-12-20T11:56:07;5.10;99.90
14097;DHT22;7125;48.106;11.544;2022-12-20T11:58:45;5.20;99.90
14097;DHT22;7125;48.106;11.544;2022-12-20T12:01:16;5.20;99.90
14097;DHT22;7125;48.106;11.544;2022-12-20T12:04:02;5.20;99.90
14097;DHT22;7125;48.106;11.544;2022-12-20T12:06:36;5.30;99.90
14097;DHT22;7125;48.106;11.544;2022-12-20T12:09:13;5.30;99.90
14097;DHT22;7125;48.106;11.544;2022-12-20T12:11:44;5.30;99.90
14097;DHT22;7125;48.106;11.544;2022-12-20T12:14:27;5.30;99.90
14097;DHT22;7125;48.106;11.544;2022-12-20T12:16:58;5.30;99.90
14097;DHT22;7125;48.106;11.544;2022-12-20T12:19:29;5.20;99.90
14097;DHT22;7125;48.106;11.544;2022-12-20T12:22:00;5.10;99.90
14097;DHT22;7125;48.106;11.544;2022-12-20T12:24:34;5.00;99.90
14097;DHT22;7125;48.106;11.544;2022-12-20T12:27:04;4.90;99.90
14097;DHT22;7125;48.106;11.544;2022-12-20T12:35:24;4.80;99.90
14097;DHT22;7125;48.106;11.544;2022-12-20T12:38:08;4.80;99.90
14097;DHT22;7125;48.106;11.544;2022-12-20T12:41:19;4.70;99.90
14097;DHT22;7125;48.106;11.544;2022-12-20T12:43:50;4.70;99.90
14097;DHT22;7125;48.106;11.544;2022-12-20T12:46:22;4.80;99.90
14097;DHT22;7125;48.106;11.544;2022-12-20T12:48:57;4.70;99.90
14097;DHT22;7125;48.106;11.544;2022-12-20T12:51:28;4.70;99.90
14097;DHT22;7125;48.106;11.544;2022-12-20T12:54:16;4.70;99.90
14097;DHT22;7125;48.106;11.544;2022-12-20T12:56:47;4.70;99.90
14097;DHT22;7125;48.106;11.544;2022-12-20T12:59:48;4.60;99.90
14097;DHT22;7125;48.106;11.544;2022-12-20T13:02:35;4.60;99.90
14097;DHT22;7125;48.106;11.544;2022-12-20T13:05:32;4.60;99.90
14097;DHT22;7125;48.106;11.544;2022-12-20T13:08:00;4.60;99.90
14097;DHT22;7125;48.106;11.544;2022-12-20T13:10:57;4.60;99.90
14097;DHT22;7125;48.106;11.544;2022-12-20T13:13:26;4.60;99.90
14097;DHT22;7125;48.106;11.544;2022-12-20T13:16:25;4.50;99.90
14097;DHT22;7125;48.106;11.544;2022-12-20T13:19:10;4.50;99.90
14097;DHT22;7125;48.106;11.544;2022-12-20T13:21:40;4.40;99.90
14097;DHT22;7125;48.106;11.544;2022-12-20T13:27:32;4.20;99.90
14097;DHT22;7125;48.106;11.544;2022-12-20T13:30:24;4.10;99.90
14097;DHT22;7125;48.106;11.544;2022-12-20T13:38:56;3.90;99.90
14097;DHT22;7125;48.106;11.544;2022-12-20T13:41:39;3.80;99.90
14097;DHT22;7125;48.106;11.544;2022-12-20T13:44:33;3.80;99.90
14097;DHT22;7125;48.106;11.544;2022-12-20T13:47:22;3.70;99.90
14097;DHT22;7125;48.106;11.544;2022-12-20T13:49:52;3.70;99.90
14097;DHT22;7125;48.106;11.544;2022-12-20T13:52:23;3.70;99.90
14097;DHT22;7125;48.106;11.544;2022-12-20T13:54:53;3.60;99.90
14097;DHT22;7125;48.106;11.544;2022-12-20T13:57:28;3.60;99.90
14097;DHT22;7125;48.106;11.544;2022-12-20T13:59:59;3.50;99.90
14097;DHT22;7125;48.106;11.544;2022-12-20T14:02:32;3.40;99.90
14097;DHT22;7125;48.106;11.544;2022-12-20T14:05:01;3.50;99.90
14097;DHT22;7125;48.106;11.544;2022-12-20T14:07:31;3.40;99.90
14097;DHT22;7125;48.106;11.544;2022-12-20T14:10:00;3.50;99.90
14097;DHT22;7125;48.106;11.544;2022-12-20T14:12:28;3.50;99.90
14097;DHT22;7125;48.106;11.544;2022-12-20T14:14:56;3.60;99.90
14097;DHT22;7125;48.106;11.544;2022-12-20T14:17:25;3.70;99.90
14097;DHT22;7125;48.106;11.544;2022-12-20T14:20:06;3.90;99.90
14097;DHT22;7125;48.106;11.544;2022-12-20T14:22:41;4.00;99.90
14097;DHT22;7125;48.106;11.544;2022-12-20T14:25:13;4.10;99.90
14097;DHT22;7125;48.106;11.544;2022-12-20T14:27:42;4.10;99.90
14097;DHT22;7125;48.106;11.544;2022-12-20T14:30:35;4.10;99.90
14097;DHT22;7125;48.106;11.544;2022-12-20T14:33:17;4.00;99.90
14097;DHT22;7125;48.106;11.544;2022-12-20T14:35:47;3.90;99.90
14097;DHT22;7125;48.106;11.544;2022-12-20T14:38:21;3.80;99.90
14097;DHT22;7125;48.106;11.544;2022-12-20T14:40:49;3.60;99.90
14097;DHT22;7125;48.106;11.544;2022-12-20T14:43:25;3.60;99.90
14097;DHT22;7125;48.106;11.544;2022-12-20T14:46:16;3.50;99.90
14097;DHT22;7125;48.106;11.544;2022-12-20T14:48:44;3.40;99.90
14097;DHT22;7125;48.106;11.544;2022-12-20T14:51:18;3.30;99.90
14097;DHT22;7125;48.106;11.544;2022-12-20T14:53:48;3.20;99.90
14097;DHT22;7125;48.106;11.544;2022-12-20T14:56:18;3.10;99.90
14097;DHT22;7125;48.106;11.544;2022-12-20T14:58:48;3.10;99.90
14097;DHT22;7125;48.106;11.544;2022-12-20T15:01:26;3.00;99.90
14097;DHT22;7125;48.106;11.544;2022-12-20T15:03:57;3.00;99.90
14097;DHT22;7125;48.106;11.544;2022-12-20T15:06:33;3.00;99.90
14097;DHT22;7125;48.106;11.544;2022-12-20T15:09:01;3.00;99.90
14097;DHT22;7125;48.106;11.544;2022-12-20T15:11:29;2.90;99.90
14097;DHT22;7125;48.106;11.544;2022-12-20T15:13:57;2.90;99.90
14097;DHT22;7125;48.106;11.544;2022-12-20T15:16:25;2.80;99.90
14097;DHT22;7125;48.106;11.544;2022-12-20T15:18:55;2.80;99.90
14097;DHT22;7125;48.106;11.544;2022-12-20T15:21:27;2.80;99.90
14097;DHT22;7125;48.106;11.544;2022-12-20T15:23:57;2.80;99.90
14097;DHT22;7125;48.106;11.544;2022-12-20T15:26:26;2.80;99.90
14097;DHT22;7125;48.106;11.544;2022-12-20T15:28:53;2.70;99.90
14097;DHT22;7125;48.106;11.544;2022-12-20T15:31:22;2.70;99.90
14097;DHT22;7125;48.106;11.544;2022-12-20T15:33:50;2.70;99.90
14097;DHT22;7125;48.106;11.544;2022-12-20T15:36:20;2.60;99.90
14097;DHT22;7125;48.106;11.544;2022-12-20T15:38:48;2.60;99.90
14097;DHT22;7125;48.106;11.544;2022-12-20T15:41:20;2.50;99.90
14097;DHT22;7125;48.106;11.544;2022-12-20T15:43:50;2.50;99.90
14097;DHT22;7125;48.106;11.544;2022-12-20T15:46:17;2.50;99.90
14097;DHT22;7125;48.106;11.544;2022-12-20T15:48:45;2.50;99.90
14097;DHT22;7125;48.106;11.544;2022-12-20T15:51:15;2.40;99.90
14097;DHT22;7125;48.106;11.544;2022-12-20T15:53:43;2.40;99.90
14097;DHT22;7125;48.106;11.544;2022-12-20T15:56:15;2.40;99.90
14097;DHT22;7125;48.106;11.544;2022-12-20T15:58:44;2.40;99.90
14097;DHT22;7125;48.106;11.544;2022-12-20T16:01:14;2.30;99.90
14097;DHT22;7125;48.106;11.544;2022-12-20T16:03:41;2.30;99.90
14097;DHT22;7125;48.106;11.544;2022-12-20T16:06:10;2.30;99.90
14097;DHT22;7125;48.106;11.544;2022-12-20T16:08:38;2.30;99.90
14097;DHT22;7125;48.106;11.544;2022-12-20T16:11:05;2.30;99.90
14097;DHT22;7125;48.106;11.544;2022-12-20T16:13:33;2.30;99.90
14097;DHT22;7125;48.106;11.544;2022-12-20T16:16:02;2.30;99.90
14097;DHT22;7125;48.106;11.544;2022-12-20T16:18:31;2.30;99.90
14097;DHT22;7125;48.106;11.544;2022-12-20T16:20:58;2.30;99.90
14097;DHT22;7125;48.106;11.544;2022-12-20T16:23:24;2.30;99.90
14097;DHT22;7125;48.106;11.544;2022-12-20T16:25:51;2.30;99.90
14097;DHT22;7125;48.106;11.544;2022-12-20T16:28:18;2.30;99.90
14097;DHT22;7125;48.106;11.544;2022-12-20T16:30:45;2.30;99.90
14097;DHT22;7125;48.106;11.544;2022-12-20T16:33:19;2.20;99.90